Time;durP1;ratioP1;P1;durP2;ratioP2;P2;SDS_P1;SDS_P2;PMS_P1;PMS_P2;Temp;Humidity;BMP_temperature;BMP_pressure;BME280_temperature;BME280_humidity;BME280_pressure;Samples;Min_cycle;Max_cycle;Signal;HPM_P1;HPM_P2
2021/06/09 00:00:33;;;;;;;9.65;5.93;;;;;;;16.68;76.43;101197.94;5093538;28;20028;-83
2021/06/09 00:02:58;;;;;;;8.20;6.10;;;;;;;16.64;77.14;101192.06;5093606;28;20031;-83
2021/06/09 00:05:24;;;;;;;7.93;6.00;;;;;;;16.54;77.22;101191.94;5093461;28;20031;-83
2021/06/09 00:07:50;;;;;;;10.90;6.60;;;;;;;16.50;76.09;101190.50;5093581;28;20056;-83
2021/06/09 00:10:15;;;;;;;10.10;6.30;;;;;;;16.46;76.00;101197.03;5092769;28;20114;-83
2021/06/09 00:12:40;;;;;;;8.73;6.60;;;;;;;16.35;76.72;101197.03;5093154;28;20094;-83
2021/06/09 00:15:12;;;;;;;8.13;6.50;;;;;;;16.31;77.64;101195.59;5093584;28;20431;-83
2021/06/09 00:17:38;;;;;;;11.45;7.53;;;;;;;16.36;77.58;101204.03;5093229;28;20091;-83
2021/06/09 00:20:09;;;;;;;12.75;7.53;;;;;;;16.34;78.89;101204.16;5093125;28;20032;-83
2021/06/09 00:22:34;;;;;;;8.27;6.47;;;;;;;16.33;78.46;101205.13;5093242;28;20024;-83
2021/06/09 00:25:00;;;;;;;7.68;6.93;;;;;;;16.30;78.59;101204.53;5093099;28;20036;-83
2021/06/09 00:27:26;;;;;;;11.43;7.22;;;;;;;16.29;78.20;101194.88;5093149;28;20024;-83
2021/06/09 00:29:52;;;;;;;8.07;6.82;;;;;;;16.16;77.83;101195.84;5092883;28;20485;-83
2021/06/09 00:32:17;;;;;;;9.85;7.18;;;;;;;16.26;78.19;101193.31;5092912;28;20024;-83
2021/06/09 00:34:43;;;;;;;10.45;7.70;;;;;;;16.24;79.06;101190.78;5092720;28;20097;-83
2021/06/09 00:37:08;;;;;;;10.25;7.22;;;;;;;16.23;79.28;101196.19;5091907;28;20473;-83
2021/06/09 00:39:33;;;;;;;11.98;7.60;;;;;;;16.26;78.57;101198.63;5093003;28;20086;-83
2021/06/09 00:41:59;;;;;;;9.75;7.78;;;;;;;16.26;77.65;101188.88;5092759;28;20020;-83
2021/06/09 00:44:24;;;;;;;8.05;7.05;;;;;;;16.28;78.34;101194.03;5092861;28;20037;-83
2021/06/09 00:46:50;;;;;;;9.73;7.80;;;;;;;16.27;77.81;101195.00;5092523;28;20039;-83
2021/06/09 00:49:15;;;;;;;10.48;7.25;;;;;;;16.34;78.05;101201.50;5093179;28;20024;-83
2021/06/09 00:51:41;;;;;;;10.30;7.32;;;;;;;16.31;77.94;101190.31;5092724;28;20053;-83
2021/06/09 00:54:07;;;;;;;8.20;7.03;;;;;;;16.23;77.27;101194.41;5092595;28;20115;-83
2021/06/09 00:56:35;;;;;;;8.32;6.80;;;;;;;16.20;78.03;101199.13;5092335;28;20051;-83
2021/06/09 00:59:01;;;;;;;9.90;7.65;;;;;;;16.23;78.79;101198.84;5092645;28;20055;-83
2021/06/09 01:01:28;;;;;;;8.32;7.40;;;;;;;16.22;77.98;101195.38;5092460;28;20430;-83
2021/06/09 01:03:54;;;;;;;8.45;7.20;;;;;;;16.26;78.31;101196.81;5092540;28;20031;-83
2021/06/09 01:06:20;;;;;;;9.23;7.10;;;;;;;16.18;78.79;101188.63;5092242;28;20028;-83
2021/06/09 01:08:47;;;;;;;7.10;6.40;;;;;;;16.19;78.67;101192.13;5090875;28;20397;-83
2021/06/09 01:11:26;;;;;;;8.88;6.68;;;;;;;16.17;77.92;101189.63;5092431;28;20019;-83
2021/06/09 01:13:53;;;;;;;7.82;6.38;;;;;;;16.12;78.35;101191.78;5092431;28;20034;-83
2021/06/09 01:16:18;;;;;;;7.68;6.40;;;;;;;16.10;78.96;101188.41;5092264;28;20020;-83
2021/06/09 01:18:45;;;;;;;8.70;6.72;;;;;;;16.17;78.18;101183.44;5092310;28;20024;-83
2021/06/09 01:21:10;;;;;;;8.65;6.72;;;;;;;16.14;78.26;101184.53;5091836;28;20073;-83
2021/06/09 01:23:38;;;;;;;8.35;6.20;;;;;;;16.13;77.04;101197.91;5092226;28;20028;-83
2021/06/09 01:26:05;;;;;;;7.35;6.25;;;;;;;16.05;77.96;101195.84;5092149;28;20032;-83
2021/06/09 01:28:30;;;;;;;7.22;6.53;;;;;;;16.04;78.48;101189.72;5092134;28;20024;-83
2021/06/09 01:30:56;;;;;;;7.10;6.13;;;;;;;16.07;78.09;101188.63;5091992;28;20434;-83
2021/06/09 01:33:22;;;;;;;10.27;5.90;;;;;;;16.07;78.18;101196.56;5092149;28;20020;-83
2021/06/09 01:35:52;;;;;;;6.93;6.15;;;;;;;16.05;77.89;101194.06;5091734;28;20040;-83
2021/06/09 01:38:18;;;;;;;6.75;5.57;;;;;;;16.03;78.12;101192.47;5091421;28;20533;-83
2021/06/09 01:40:44;;;;;;;7.32;5.45;;;;;;;16.01;77.81;101189.94;5091982;28;20128;-83
2021/06/09 01:43:09;;;;;;;8.45;5.28;;;;;;;16.02;78.18;101194.28;5091984;28;20086;-83
2021/06/09 01:45:38;;;;;;;5.57;5.07;;;;;;;16.02;77.30;101186.34;5091928;28;20039;-83
2021/06/09 01:48:06;;;;;;;8.73;4.93;;;;;;;16.02;77.64;101185.50;5091664;28;20077;-83
2021/06/09 01:50:32;;;;;;;6.38;4.85;;;;;;;16.03;77.75;101190.69;5091528;28;20032;-83
2021/06/09 01:53:02;;;;;;;5.10;4.43;;;;;;;16.00;78.46;101187.44;5092069;28;20478;-83
2021/06/09 01:55:29;;;;;;;6.90;4.53;;;;;;;15.98;78.17;101190.22;5091792;28;20035;-83
2021/06/09 01:57:54;;;;;;;6.90;4.60;;;;;;;15.99;77.83;101185.75;5091860;28;20486;-83
2021/06/09 02:00:26;;;;;;;5.85;5.00;;;;;;;15.98;78.15;101189.38;5091627;28;20073;-83
2021/06/09 02:02:57;;;;;;;6.50;4.72;;;;;;;15.95;77.42;101189.59;5091814;28;20072;-82
2021/06/09 02:05:23;;;;;;;6.13;4.65;;;;;;;15.90;77.72;101179.38;5091641;28;20024;-83
2021/06/09 02:07:48;;;;;;;6.95;4.38;;;;;;;15.84;77.22;101183.34;5091696;28;20492;-83
2021/06/09 02:10:17;;;;;;;6.93;4.93;;;;;;;15.80;77.20;101184.53;5091569;28;20035;-83
2021/06/09 02:12:49;;;;;;;5.43;4.57;;;;;;;15.76;77.22;101180.44;5091857;28;20062;-83
2021/06/09 02:15:15;;;;;;;;;;;;;;;15.76;77.65;101185.75;5091714;28;20319;-83
2021/06/09 02:17:45;;;;;;;7.55;4.63;;;;;;;15.72;78.39;101188.69;5091796;28;20337;-83
2021/06/09 02:20:12;;;;;;;6.40;4.75;;;;;;;15.71;78.11;101181.72;5091582;28;20107;-83
2021/06/09 02:22:38;;;;;;;8.05;5.13;;;;;;;15.70;78.63;101191.47;5091127;28;20032;-83
2021/06/09 02:25:06;;;;;;;5.78;5.18;;;;;;;15.66;78.99;101177.63;5091263;28;20587;-83
2021/06/09 02:27:33;;;;;;;6.15;5.28;;;;;;;15.68;79.06;101182.81;5091391;28;20062;-83
2021/06/09 02:29:59;;;;;;;7.18;4.97;;;;;;;15.68;78.92;101185.47;5091441;28;20686;-83
2021/06/09 02:32:25;;;;;;;4.65;4.15;;;;;;;15.64;78.70;101182.22;5091588;28;20036;-83
2021/06/09 02:34:50;;;;;;;6.10;4.22;;;;;;;15.61;78.49;101186.88;5091542;28;20470;-83
2021/06/09 02:37:16;;;;;;;6.43;4.30;;;;;;;15.58;78.46;101177.38;5091462;28;20363;-83
2021/06/09 02:39:41;;;;;;;5.35;4.47;;;;;;;15.60;78.52;101178.09;5091584;28;20027;-83
2021/06/09 02:42:09;;;;;;;5.78;4.70;;;;;;;15.60;78.47;101187.84;5091377;28;20055;-83
2021/06/09 02:44:34;;;;;;;6.80;5.20;;;;;;;15.49;78.84;101183.38;5090872;28;20115;-83
2021/06/09 02:47:02;;;;;;;5.65;5.03;;;;;;;15.42;79.40;101182.16;5091482;28;20103;-83
2021/06/09 02:49:31;;;;;;;6.97;4.93;;;;;;;15.42;78.60;101183.00;5091301;28;20055;-83
2021/06/09 02:52:16;;;;;;;6.75;4.78;;;;;;;15.38;78.51;101180.69;5090980;28;20020;-83
2021/06/09 02:54:50;;;;;;;5.03;4.57;;;;;;;15.60;77.40;101170.16;5091341;28;20024;-83
2021/06/09 02:57:39;;;;;;;8.35;4.90;;;;;;;15.68;76.43;101174.88;5091138;28;20024;-83
2021/06/09 03:00:17;;;;;;;5.38;4.88;;;;;;;15.63;76.03;101177.84;5093438;28;20032;-83
2021/06/09 03:03:05;;;;;;;5.82;5.15;;;;;;;15.44;78.12;101174.94;5095022;28;20265;-83
2021/06/09 03:05:40;;;;;;;5.57;4.82;;;;;;;15.58;77.19;101172.09;5094633;28;20459;-83
2021/06/09 03:08:32;;;;;;;7.80;4.60;;;;;;;15.53;78.13;101170.75;5095055;28;20111;-83
2021/06/09 03:11:26;;;;;;;6.03;4.55;;;;;;;15.60;77.34;101171.94;5094658;28;20069;-83
2021/06/09 03:14:17;;;;;;;5.07;4.57;;;;;;;15.57;77.65;101169.56;5094354;28;20034;-83
2021/06/09 03:16:50;;;;;;;4.60;4.13;;;;;;;15.50;77.40;101168.34;5094545;28;20516;-83
2021/06/09 03:19:21;;;;;;;5.10;4.60;;;;;;;15.49;77.58;101167.50;5093330;28;20420;-83
2021/06/09 03:21:56;;;;;;;7.40;4.72;;;;;;;15.44;77.73;101165.22;5094556;28;20027;-83
2021/06/09 03:24:35;;;;;;;5.40;4.90;;;;;;;15.41;77.30;101175.19;5094358;28;20024;-83
2021/06/09 03:27:05;;;;;;;4.55;4.15;;;;;;;15.22;78.32;101170.44;5094266;28;20052;-83
2021/06/09 03:29:39;;;;;;;6.28;5.15;;;;;;;15.18;78.29;101174.25;5073961;28;20037;-83
2021/06/09 03:32:09;;;;;;;5.50;4.88;;;;;;;14.99;80.33;101165.06;5074046;28;20374;-83
2021/06/09 03:34:46;;;;;;;6.80;5.10;;;;;;;15.06;80.70;101174.22;5073867;28;20040;-83
2021/06/09 03:37:18;;;;;;;6.35;4.30;;;;;;;15.09;80.22;101170.53;5074001;28;20032;-83
2021/06/09 03:39:45;;;;;;;5.45;4.95;;;;;;;15.07;80.02;101169.78;5074007;28;20025;-82
2021/06/09 03:42:16;;;;;;;6.88;4.78;;;;;;;15.06;79.74;101171.56;5077320;28;20028;-83
2021/06/09 03:44:49;;;;;;;5.28;4.72;;;;;;;15.02;79.84;101170.13;5093919;28;20081;-83
2021/06/09 03:47:18;;;;;;;8.27;4.97;;;;;;;14.96;79.64;101164.44;5094154;28;20031;-83
2021/06/09 03:49:45;;;;;;;5.07;4.60;;;;;;;14.98;79.76;101160.72;5093948;28;20093;-83
2021/06/09 03:52:12;;;;;;;7.95;4.93;;;;;;;14.98;79.87;101157.25;5093807;28;20016;-83
2021/06/09 03:54:40;;;;;;;5.10;4.53;;;;;;;14.95;80.90;101157.47;5093902;28;20481;-83
2021/06/09 03:57:06;;;;;;;5.18;4.47;;;;;;;14.92;80.51;101155.91;5090059;28;20036;-82
2021/06/09 03:59:32;;;;;;;6.15;4.85;;;;;;;14.95;80.35;101157.47;5093534;28;20506;-83
2021/06/09 04:01:59;;;;;;;6.22;4.80;;;;;;;14.95;79.82;101158.31;5093603;28;20042;-83
2021/06/09 04:04:29;;;;;;;5.70;4.88;;;;;;;14.91;79.56;101150.72;5093542;28;20462;-83
2021/06/09 04:06:57;;;;;;;7.70;4.80;;;;;;;14.91;81.14;101153.34;5093350;28;20028;-83
2021/06/09 04:09:24;;;;;;;5.10;4.65;;;;;;;14.91;80.46;101161.28;5093347;28;20027;-83
2021/06/09 04:11:54;;;;;;;6.38;4.53;;;;;;;14.90;80.27;101155.16;5094431;28;20024;-83
2021/06/09 04:14:22;;;;;;;5.97;5.00;;;;;;;14.97;79.84;101139.69;5107591;28;20375;-84
2021/06/09 04:16:50;;;;;;;4.97;4.47;;;;;;;15.16;78.88;101141.78;5092838;28;20428;-84
2021/06/09 04:19:21;;;;;;;5.07;4.63;;;;;;;15.11;78.27;101147.44;5092000;28;20028;-84
2021/06/09 04:21:47;;;;;;;5.07;4.53;;;;;;;15.19;77.98;101145.06;5084375;28;20052;-83
2021/06/09 04:24:12;;;;;;;5.13;4.63;;;;;;;14.94;79.29;101139.94;5078746;28;20351;-84
2021/06/09 04:26:39;;;;;;;7.35;5.10;;;;;;;14.86;80.85;101137.84;5092130;28;20470;-84
2021/06/09 04:29:07;;;;;;;8.15;5.40;;;;;;;15.12;78.24;101143.00;5080248;28;20025;-84
2021/06/09 04:31:34;;;;;;;5.50;4.93;;;;;;;15.18;78.76;101140.72;5085813;28;20115;-84
2021/06/09 04:34:00;;;;;;;6.18;5.57;;;;;;;15.21;78.65;101129.91;5092788;28;20535;-84
2021/06/09 04:36:26;;;;;;;6.75;4.80;;;;;;;15.24;78.71;101126.19;5092581;28;20461;-84
2021/06/09 04:38:52;;;;;;;5.55;5.05;;;;;;;15.26;79.02;101130.41;5092861;28;20031;-84
2021/06/09 04:41:19;;;;;;;6.50;5.90;;;;;;;15.20;79.57;101135.31;5091610;28;20481;-84
2021/06/09 04:43:45;;;;;;;10.73;6.85;;;;;;;15.28;79.59;101140.84;5092763;28;20587;-84
2021/06/09 04:46:19;;;;;;;7.78;6.20;;;;;;;15.32;80.10;101130.88;5092808;28;20040;-84
2021/06/09 04:49:01;;;;;;;7.80;7.00;;;;;;;15.39;79.24;101135.59;5092615;28;20066;-84
2021/06/09 04:51:32;;;;;;;7.82;6.13;;;;;;;15.38;79.99;101133.94;5081871;28;20110;-83
2021/06/09 04:53:58;;;;;;;7.45;6.70;;;;;;;15.45;78.58;101139.59;5072178;28;20080;-84
2021/06/09 04:56:24;;;;;;;9.55;6.57;;;;;;;15.57;78.74;101132.50;5071686;28;20431;-84
2021/06/09 04:58:49;;;;;;;10.18;6.72;;;;;;;15.69;78.30;101139.47;5080419;28;20036;-84
2021/06/09 05:01:15;;;;;;;6.68;6.07;;;;;;;15.72;78.08;101141.03;5092114;28;20035;-84
2021/06/09 05:03:41;;;;;;;8.43;7.00;;;;;;;15.75;78.33;101140.84;5092184;28;20447;-84
2021/06/09 05:06:06;;;;;;;7.82;6.15;;;;;;;15.80;77.44;101144.00;5073891;28;20191;-84
2021/06/09 05:08:32;;;;;;;7.60;6.90;;;;;;;15.80;77.90;101144.81;5072185;28;20035;-84
2021/06/09 05:11:00;;;;;;;7.20;6.50;;;;;;;15.90;77.44;101142.28;5082330;28;20485;-84
2021/06/09 05:13:39;;;;;;;6.85;6.25;;;;;;;15.85;77.82;101147.09;5092261;28;20027;-84
2021/06/09 05:16:10;;;;;;;6.55;5.90;;;;;;;15.98;77.18;101136.41;5092163;28;20052;-84
2021/06/09 05:18:42;;;;;;;8.70;7.10;;;;;;;16.07;77.50;101140.94;5090116;28;20390;-84
2021/06/09 05:21:07;;;;;;;;;;;;;;;15.97;78.11;101148.78;5074373;28;20073;-84
2021/06/09 05:23:37;;;;;;;8.02;7.10;;;;;;;15.99;78.24;101148.66;5071689;28;19916;-84
2021/06/09 05:26:03;;;;;;;8.55;7.72;;;;;;;16.01;78.37;101144.09;5071032;28;20032;-84
2021/06/09 05:28:33;;;;;;;9.70;7.47;;;;;;;16.07;79.06;101148.91;5071738;28;20094;-84
2021/06/09 05:30:59;;;;;;;8.90;7.18;;;;;;;16.16;78.96;101142.03;5071509;28;20470;-84
2021/06/09 05:33:28;;;;;;;8.88;7.82;;;;;;;16.42;77.79;101145.22;5087892;28;20031;-84
2021/06/09 05:35:55;;;;;;;7.65;6.85;;;;;;;16.55;77.45;101151.22;5091840;28;20031;-85
2021/06/09 05:38:21;;;;;;;9.05;7.93;;;;;;;16.55;76.80;101150.41;5091763;28;20028;-84
2021/06/09 05:40:47;;;;;;;12.30;7.88;;;;;;;16.60;77.28;101149.03;5089418;28;20390;-84
2021/06/09 05:43:19;;;;;;;12.30;8.48;;;;;;;16.65;77.75;101146.84;5091354;28;20032;-84
2021/06/09 05:45:45;;;;;;;9.30;8.05;;;;;;;16.72;77.62;101149.84;5091569;28;20036;-85
2021/06/09 05:48:10;;;;;;;8.18;7.38;;;;;;;16.78;77.60;101162.59;5089861;28;20098;-85
2021/06/09 05:50:36;;;;;;;8.02;7.32;;;;;;;16.65;78.39;101161.94;5088554;28;20017;-85
2021/06/09 05:53:04;;;;;;;14.75;10.00;;;;;;;16.61;79.28;101158.69;5090084;28;20483;-85
2021/06/09 05:55:31;;;;;;;12.77;9.55;;;;;;;16.89;78.41;101158.25;5090629;28;20036;-85
2021/06/09 05:58:02;;;;;;;11.70;9.05;;;;;;;17.07;77.07;101167.34;5091082;28;20130;-84
2021/06/09 06:00:27;;;;;;;9.98;8.85;;;;;;;17.17;77.19;101164.75;5082447;28;20020;-84
2021/06/09 06:02:53;;;;;;;11.90;8.65;;;;;;;17.27;77.73;101163.00;5091391;28;20492;-84
2021/06/09 06:05:20;;;;;;;8.80;7.80;;;;;;;17.44;77.03;101158.94;5091378;28;20448;-84
2021/06/09 06:07:46;;;;;;;11.95;10.65;;;;;;;17.54;77.26;101161.66;5091599;28;20103;-83
2021/06/09 06:10:14;;;;;;;15.23;10.07;;;;;;;17.91;76.71;101164.66;5091588;28;20024;-84
2021/06/09 06:12:41;;;;;;;14.45;10.10;;;;;;;18.72;73.18;101159.28;5092840;28;20028;-84
2021/06/09 06:15:09;;;;;;;15.45;9.18;;;;;;;18.92;72.78;101160.16;5091443;28;20028;-84
2021/06/09 06:17:39;;;;;;;12.95;8.43;;;;;;;19.29;71.34;101159.38;5091636;28;20032;-83
2021/06/09 06:20:12;;;;;;;11.68;8.32;;;;;;;19.72;66.90;101160.72;5090694;28;20056;-84
2021/06/09 06:22:37;;;;;;;8.52;7.65;;;;;;;20.41;63.76;101163.91;5091293;28;20024;-85
2021/06/09 06:25:04;;;;;;;7.65;6.82;;;;;;;21.20;62.72;101162.34;5090704;28;20363;-85
2021/06/09 06:27:30;;;;;;;11.25;6.38;;;;;;;21.85;57.91;101155.75;5089564;28;20379;-85
2021/06/09 06:29:56;;;;;;;7.55;5.78;;;;;;;22.74;55.99;101157.06;5090967;28;20028;-84
2021/06/09 06:32:24;;;;;;;9.18;7.10;;;;;;;23.28;53.28;101160.13;5091201;28;20024;-84
2021/06/09 06:34:51;;;;;;;11.18;5.35;;;;;;;24.12;52.46;101159.72;5093383;28;20028;-87
2021/06/09 06:37:24;;;;;;;7.95;4.95;;;;;;;24.58;50.39;101156.31;5093584;28;20036;-84
2021/06/09 06:39:50;;;;;;;8.25;4.95;;;;;;;24.92;49.82;101161.25;5083111;28;20050;-84
2021/06/09 06:42:18;;;;;;;7.25;4.80;;;;;;;25.01;49.04;101159.34;5094486;28;20462;-84
2021/06/09 06:44:44;;;;;;;6.50;4.63;;;;;;;24.75;48.94;101165.94;5091090;28;20486;-86
2021/06/09 06:47:12;;;;;;;5.05;4.53;;;;;;;25.17;47.63;101167.25;5091626;28;20130;-85
2021/06/09 06:49:38;;;;;;;5.28;4.18;;;;;;;25.28;46.46;101161.47;5093598;28;20073;-85
2021/06/09 06:52:04;;;;;;;6.35;3.53;;;;;;;26.29;45.45;101167.22;5094864;28;20032;-85
2021/06/09 06:54:30;;;;;;;9.20;4.25;;;;;;;27.18;42.87;101165.22;5089652;28;20478;-85
2021/06/09 06:56:57;;;;;;;7.57;3.33;;;;;;;27.80;41.43;101158.19;5074677;28;20115;-85
2021/06/09 06:59:26;;;;;;;6.47;3.88;;;;;;;28.06;41.12;101158.34;5091185;28;20038;-85
2021/06/09 07:01:51;;;;;;;26.73;4.78;;;;;;;28.43;39.51;101163.44;5094352;28;20122;-85
2021/06/09 07:04:19;;;;;;;11.90;2.60;;;;;;;28.47;40.19;101170.91;5094349;28;20074;-85
2021/06/09 07:06:46;;;;;;;10.23;3.78;;;;;;;27.86;40.68;101171.72;5094187;28;20039;-85
2021/06/09 07:09:13;;;;;;;7.20;3.03;;;;;;;28.20;39.53;101161.06;5094544;28;20024;-85
2021/06/09 07:11:41;;;;;;;9.80;3.00;;;;;;;28.02;40.08;101156.22;5093818;28;20033;-85
2021/06/09 07:14:07;;;;;;;10.75;2.95;;;;;;;27.66;40.73;101158.09;5092698;28;20020;-85
2021/06/09 07:16:35;;;;;;;6.65;3.40;;;;;;;27.56;41.19;101163.03;5092847;28;20024;-85
2021/06/09 07:19:02;;;;;;;8.10;3.42;;;;;;;27.62;41.13;101167.63;5094420;28;20035;-85
2021/06/09 07:21:27;;;;;;;4.88;2.60;;;;;;;27.79;40.17;101162.75;5094068;28;20480;-85
2021/06/09 07:23:54;;;;;;;3.45;2.13;;;;;;;28.49;38.65;101166.13;5093072;28;20540;-85
2021/06/09 07:26:21;;;;;;;4.20;2.85;;;;;;;29.04;38.00;101174.16;5093281;28;20032;-85
2021/06/09 07:28:49;;;;;;;5.47;3.40;;;;;;;28.43;39.22;101168.84;5093693;28;20110;-85
2021/06/09 07:31:18;;;;;;;5.97;3.90;;;;;;;28.55;38.11;101171.81;5093603;28;20024;-85
2021/06/09 07:33:47;;;;;;;4.70;3.72;;;;;;;28.24;38.19;101165.88;5094209;28;20035;-85
2021/06/09 07:36:15;;;;;;;6.78;3.90;;;;;;;28.73;38.55;101169.34;5093116;28;20060;-85
2021/06/09 07:38:45;;;;;;;11.45;4.50;;;;;;;29.25;37.32;101173.16;5094301;28;20078;-84
2021/06/09 07:41:11;;;;;;;6.88;4.22;;;;;;;29.82;36.16;101172.66;5094139;28;20549;-84
2021/06/09 07:43:40;;;;;;;7.22;3.53;;;;;;;30.90;35.78;101166.47;5094008;28;20025;-84
2021/06/09 07:46:12;;;;;;;5.22;3.55;;;;;;;31.66;32.93;101159.13;5093178;28;20385;-85
2021/06/09 07:48:39;;;;;;;6.65;4.20;;;;;;;31.72;33.33;101157.38;5093562;28;20032;-85
2021/06/09 07:51:10;;;;;;;8.57;4.15;;;;;;;32.04;31.67;101157.25;5093721;28;20019;-85
2021/06/09 07:53:38;;;;;;;6.60;3.95;;;;;;;32.90;30.78;101160.59;5093775;28;20431;-85
2021/06/09 07:56:04;;;;;;;10.20;4.03;;;;;;;32.72;30.71;101158.78;5094003;28;20363;-85
2021/06/09 07:58:32;;;;;;;7.57;2.97;;;;;;;32.69;31.58;101160.09;5093957;28;20024;-85
2021/06/09 08:01:00;;;;;;;4.90;3.00;;;;;;;32.37;31.75;101159.50;5093440;28;20024;-85
2021/06/09 08:03:28;;;;;;;4.10;2.75;;;;;;;33.29;31.17;101158.28;5093652;28;20501;-85
2021/06/09 08:05:57;;;;;;;4.82;3.25;;;;;;;32.05;31.85;101164.31;5093519;28;20035;-85
2021/06/09 08:08:24;;;;;;;6.22;2.83;;;;;;;32.08;31.50;101161.16;5093638;28;20149;-85
2021/06/09 08:10:49;;;;;;;5.65;3.85;;;;;;;31.67;32.29;101162.66;5093139;28;20024;-85
2021/06/09 08:13:15;;;;;;;4.85;3.25;;;;;;;30.50;35.04;101165.91;5093555;28;20028;-85
2021/06/09 08:15:41;;;;;;;10.90;3.85;;;;;;;30.54;34.95;101165.25;5093298;28;20035;-85
2021/06/09 08:18:08;;;;;;;4.43;3.25;;;;;;;31.63;33.60;101163.09;5093440;28;20020;-85
2021/06/09 08:20:35;;;;;;;5.90;3.15;;;;;;;32.14;32.79;101160.22;5093056;28;20020;-85
2021/06/09 08:23:02;;;;;;;7.55;3.47;;;;;;;32.67;31.24;101162.22;5093440;28;20020;-85
2021/06/09 08:25:28;;;;;;;3.63;2.75;;;;;;;33.53;29.73;101162.66;5093094;28;20021;-85
2021/06/09 08:27:54;;;;;;;4.80;2.60;;;;;;;33.92;29.47;101162.94;5093118;28;20406;-85
2021/06/09 08:30:22;;;;;;;4.32;2.05;;;;;;;34.76;27.82;101167.81;5093035;28;20024;-85
2021/06/09 08:32:48;;;;;;;5.18;2.20;;;;;;;33.13;29.86;101162.53;5092985;28;20079;-85
2021/06/09 08:35:14;;;;;;;4.78;1.90;;;;;;;33.50;30.09;101162.28;5092745;28;20032;-85
2021/06/09 08:37:40;;;;;;;7.00;2.47;;;;;;;32.62;30.70;101164.78;5093114;28;20046;-85
2021/06/09 08:40:09;;;;;;;3.67;1.85;;;;;;;33.71;29.23;101160.84;5093130;28;20024;-85
2021/06/09 08:42:36;;;;;;;7.55;2.95;;;;;;;34.20;28.33;101169.50;5092824;28;20039;-85
2021/06/09 08:45:04;;;;;;;2.65;1.60;;;;;;;33.96;29.25;101164.09;5092966;28;20024;-85
2021/06/09 08:47:30;;;;;;;6.47;1.90;;;;;;;35.48;27.59;101165.38;5092982;28;20020;-85
2021/06/09 08:49:57;;;;;;;4.75;1.85;;;;;;;34.30;27.79;101166.97;5092528;28;20031;-85
2021/06/09 08:52:26;;;;;;;4.50;2.58;;;;;;;31.71;31.79;101169.28;5092756;28;20020;-85
2021/06/09 08:54:52;;;;;;;5.22;1.85;;;;;;;33.17;30.07;101155.56;5092812;28;20107;-85
2021/06/09 08:57:17;;;;;;;3.25;1.80;;;;;;;35.01;27.32;101163.00;5091713;28;20103;-85
2021/06/09 08:59:45;;;;;;;9.20;2.45;;;;;;;34.22;28.27;101167.34;5092636;28;20020;-85
2021/06/09 09:02:14;;;;;;;4.20;1.70;;;;;;;34.55;27.87;101161.13;5092375;28;20024;-86
2021/06/09 09:04:40;;;;;;;2.70;2.00;;;;;;;33.51;29.61;101167.50;5092572;28;20028;-85
2021/06/09 09:07:10;;;;;;;5.68;2.67;;;;;;;34.30;29.03;101161.53;5092450;28;20377;-85
2021/06/09 09:09:37;;;;;;;5.22;1.60;;;;;;;33.50;29.85;101160.38;5092580;28;20465;-85
2021/06/09 09:12:03;;;;;;;3.13;2.00;;;;;;;34.27;28.17;101155.72;5092262;28;20489;-85
2021/06/09 09:14:29;;;;;;;3.75;2.10;;;;;;;33.72;29.07;101151.63;5092565;28;20035;-85
2021/06/09 09:17:20;;;;;;;4.00;2.35;;;;;;;33.97;27.80;101157.59;5092543;28;20028;-85
2021/06/09 09:19:46;;;;;;;4.32;1.98;;;;;;;33.56;28.99;101156.72;5090793;28;20044;-85
2021/06/09 09:22:31;;;;;;;3.88;1.65;;;;;;;33.40;29.75;101149.28;5092220;28;20028;-85
2021/06/09 09:24:57;;;;;;;2.53;1.63;;;;;;;34.22;27.73;101145.53;5092168;28;20130;-85
2021/06/09 09:27:29;;;;;;;3.03;1.60;;;;;;;34.31;27.50;101133.19;5092078;28;20448;-85
2021/06/09 09:30:10;;;;;;;2.08;1.30;;;;;;;34.96;27.87;101150.13;5092160;28;20028;-85
2021/06/09 09:32:37;;;;;;;1.58;1.30;;;;;;;35.54;26.91;101145.22;5092085;28;20059;-85
2021/06/09 09:35:09;;;;;;;4.55;1.70;;;;;;;35.81;25.07;101134.41;5091970;28;20085;-85
2021/06/09 09:37:35;;;;;;;8.18;2.03;;;;;;;34.66;26.65;101145.84;5091932;28;20024;-85
2021/06/09 09:40:06;;;;;;;4.72;1.73;;;;;;;35.92;25.72;101141.66;5092150;28;20107;-85
2021/06/09 09:42:35;;;;;;;3.90;1.40;;;;;;;36.00;25.38;101136.78;5092058;28;20077;-86
2021/06/09 09:45:31;;;;;;;2.70;1.00;;;;;;;37.03;25.56;101144.88;5091844;28;20111;-83
2021/06/09 09:48:18;;;;;;;2.58;1.48;;;;;;;34.52;26.57;101147.16;5091650;28;20028;-83
2021/06/09 09:50:45;;;;;;;4.13;1.20;;;;;;;36.36;25.34;101148.13;5091776;28;20033;-84
2021/06/09 09:53:20;;;;;;;2.85;0.80;;;;;;;37.90;21.84;101152.75;5092037;28;20032;-84
2021/06/09 09:56:17;;;;;;;1.67;0.60;;;;;;;38.35;21.86;101153.97;5091786;28;20055;-83
2021/06/09 09:59:02;;;;;;;3.03;0.80;;;;;;;37.97;21.22;101155.22;5091763;28;20021;-84
2021/06/09 10:01:29;;;;;;;1.88;0.73;;;;;;;37.90;22.09;101153.56;5091739;28;20024;-84
2021/06/09 10:03:56;;;;;;;1.55;0.52;;;;;;;38.67;22.31;101148.25;5091295;28;20080;-84
2021/06/09 10:06:23;;;;;;;2.90;0.77;;;;;;;38.14;21.43;101153.13;5091714;28;20062;-84
2021/06/09 10:08:50;;;;;;;1.58;0.70;;;;;;;36.83;22.28;101148.31;5094239;28;20484;-84
2021/06/09 10:11:16;;;;;;;2.28;1.00;;;;;;;37.26;22.44;101138.19;5095738;28;20032;-84
2021/06/09 10:13:42;;;;;;;0.98;0.40;;;;;;;37.47;21.90;101144.59;5095954;28;20110;-84
2021/06/09 10:16:28;;;;;;;1.92;0.88;;;;;;;38.58;21.67;101141.66;5095847;28;20061;-84
2021/06/09 10:19:03;;;;;;;4.40;1.27;;;;;;;38.77;21.88;101135.63;5095182;28;20028;-84
2021/06/09 10:21:29;;;;;;;3.35;1.13;;;;;;;39.84;20.24;101137.25;5095329;28;20035;-84
2021/06/09 10:24:06;;;;;;;1.02;0.45;;;;;;;39.88;20.28;101126.56;5095632;28;20028;-84
2021/06/09 10:26:32;;;;;;;1.20;0.50;;;;;;;39.99;19.72;101125.38;5095508;28;20112;-84
2021/06/09 10:29:14;;;;;;;4.20;0.65;;;;;;;39.93;19.12;101137.50;5095365;28;20470;-84
2021/06/09 10:31:54;;;;;;;1.85;0.50;;;;;;;40.29;18.89;101124.34;5095266;28;20027;-84
2021/06/09 10:34:21;;;;;;;;;;;;;;;39.49;18.11;101139.06;5095656;28;20028;-84
2021/06/09 10:36:49;;;;;;;1.13;0.20;;;;;;;38.48;19.57;101133.41;5095213;28;19919;-84
2021/06/09 10:39:17;;;;;;;0.50;0.10;;;;;;;38.68;20.22;101129.84;5095189;28;20024;-84
2021/06/09 10:41:49;;;;;;;2.78;0.50;;;;;;;37.97;19.61;101131.38;5095279;28;20035;-84
2021/06/09 10:44:18;;;;;;;1.45;0.30;;;;;;;39.23;18.29;101138.31;5095359;28;20470;-84
2021/06/09 10:46:46;;;;;;;0.40;0.17;;;;;;;38.29;19.33;101138.59;5094914;28;20496;-84
2021/06/09 10:49:18;;;;;;;5.85;0.50;;;;;;;38.91;19.28;101131.22;5095320;28;20038;-84
2021/06/09 10:51:46;;;;;;;2.53;0.22;;;;;;;37.89;21.22;101135.47;5094958;28;20433;-84
2021/06/09 10:54:15;;;;;;;1.38;0.38;;;;;;;37.89;21.12;101129.97;5095092;28;20020;-84
2021/06/09 10:56:46;;;;;;;1.38;0.30;;;;;;;39.30;19.64;101127.84;5094751;28;20488;-84
2021/06/09 10:59:14;;;;;;;0.50;0.20;;;;;;;40.05;19.58;101126.97;5095058;28;20031;-84
2021/06/09 11:01:40;;;;;;;3.72;0.45;;;;;;;37.93;20.63;101123.97;5094810;28;20020;-84
2021/06/09 11:04:06;;;;;;;1.73;0.35;;;;;;;38.06;21.25;101131.72;5094736;28;20208;-84
2021/06/09 11:06:40;;;;;;;1.27;0.38;;;;;;;37.22;20.96;101131.59;5078403;28;20051;-84
2021/06/09 11:09:13;;;;;;;4.70;0.22;;;;;;;36.23;22.71;101139.25;5090059;28;20028;-84
2021/06/09 11:11:39;;;;;;;1.55;0.40;;;;;;;37.47;22.16;101130.91;5093934;28;20059;-83
2021/06/09 11:14:22;;;;;;;1.27;0.20;;;;;;;37.09;22.97;101126.59;5093874;28;20493;-84
2021/06/09 11:16:50;;;;;;;0.65;0.25;;;;;;;35.82;23.53;101125.13;5093706;28;20048;-84
2021/06/09 11:19:51;;;;;;;2.83;0.30;;;;;;;36.61;22.32;101122.91;5093149;28;20051;-84
2021/06/09 11:22:25;;;;;;;;;;;;;;;36.96;21.93;101125.13;5071100;28;20064;-84
2021/06/09 11:25:11;;;;;;;1.08;0.35;;;;;;;36.96;22.16;101121.56;5088021;28;20365;-84
2021/06/09 11:27:47;;;;;;;0.30;0.20;;;;;;;36.75;22.39;101123.31;5089535;28;20032;-83
2021/06/09 11:30:24;;;;;;;1.52;0.40;;;;;;;38.05;21.50;101119.88;5093775;28;20111;-83
2021/06/09 11:32:55;;;;;;;0.40;0.10;;;;;;;37.94;21.79;101114.63;5093773;28;20490;-83